Archer, Idaho
Current Conditions -  °F | °C
As of 7:53 PM on Friday 28 Nov 2014 (Local Time) from KRXE Reporting Station
Clear Clear  
Wind Chill: 41°   Ceiling: Unl
Heat Index: 46°   Visibility: 10mi
Dew Point: 19°   Wind: 12mph
Humidity: 34%   Direction: 220°SW
Pressure: 29.66"   Gusts: NA
Location:  43.7568°N, 111.624°W
Report Text: KRXE 290253Z AUTO 22010KT 10SM CLR 08/M07 A2966 RMK AO2 SLP035 T00781072 58015
Loading
Personal Weather Stations






























Interactive Weather Map New forecast layout! Learn more

10-Day Weather Forecast

Advertisements
Track Severe Weather on mobile